Time;durP1;ratioP1;P1;durP2;ratioP2;P2;SDS_P1;SDS_P2;PMS_P1;PMS_P2;Temp;Humidity;BMP_temperature;BMP_pressure;BME280_temperature;BME280_humidity;BME280_pressure;Samples;Min_cycle;Max_cycle;Signal;HPM_P1;HPM_P2
2022/04/27 00:00:13;;;;;;;2.42;1.10;;;;;;;20.43;34.75;98783.75;5030090;28;20373;-68
2022/04/27 00:02:38;;;;;;;1.33;1.10;;;;;;;20.44;34.63;98782.69;5033267;28;20044;-68
2022/04/27 00:05:04;;;;;;;3.10;1.05;;;;;;;20.46;34.87;98785.19;5033268;28;20033;-69
2022/04/27 00:07:30;;;;;;;5.03;1.25;;;;;;;20.59;34.79;98793.28;5034188;28;20041;-69
2022/04/27 00:09:55;;;;;;;1.95;1.40;;;;;;;20.63;34.81;98791.84;5031148;28;20899;-68
2022/04/27 00:12:21;;;;;;;1.63;1.05;;;;;;;20.64;34.77;98792.66;5026306;28;20037;-67
2022/04/27 00:14:47;;;;;;;5.78;1.10;;;;;;;20.60;34.79;98794.94;5028566;28;20508;-67
2022/04/27 00:17:12;;;;;;;2.58;1.17;;;;;;;20.65;34.89;98794.31;5026150;28;20037;-67
2022/04/27 00:19:38;;;;;;;2.40;1.48;;;;;;;20.63;34.85;98802.59;5030995;28;20120;-67
2022/04/27 00:22:03;;;;;;;5.45;1.23;;;;;;;20.64;34.96;98815.00;5031532;28;20029;-67
2022/04/27 00:24:29;;;;;;;2.55;1.30;;;;;;;20.61;35.07;98818.09;5030860;28;20029;-67
2022/04/27 00:26:54;;;;;;;3.33;1.30;;;;;;;20.57;35.13;98809.59;5031293;28;20048;-67
2022/04/27 00:29:20;;;;;;;1.42;1.00;;;;;;;20.53;35.18;98821.78;5032096;28;20064;-66
2022/04/27 00:31:46;;;;;;;1.80;1.17;;;;;;;20.46;35.09;98822.81;5023175;28;20037;-67
2022/04/27 00:34:12;;;;;;;5.53;1.10;;;;;;;20.41;35.07;98818.03;5013322;28;20030;-66
2022/04/27 00:36:37;;;;;;;6.57;1.63;;;;;;;20.42;35.32;98822.38;5021613;28;20037;-66
2022/04/27 00:39:03;;;;;;;1.98;1.30;;;;;;;20.41;35.24;98821.53;5031247;28;20125;-67
2022/04/27 00:41:29;;;;;;;3.75;1.25;;;;;;;20.46;35.21;98820.94;5030911;28;20075;-66
2022/04/27 00:43:55;;;;;;;2.10;1.23;;;;;;;20.46;35.36;98825.50;5031175;28;20038;-66
2022/04/27 00:46:21;;;;;;;5.03;1.30;;;;;;;20.48;35.03;98831.50;5031170;28;20128;-66
2022/04/27 00:48:47;;;;;;;2.05;1.27;;;;;;;20.43;35.38;98835.59;5021109;28;20049;-67
2022/04/27 00:51:22;;;;;;;1.80;1.30;;;;;;;20.39;35.65;98828.97;5026379;28;20037;-67
2022/04/27 00:53:52;;;;;;;2.10;1.45;;;;;;;20.36;35.58;98826.72;5030775;28;20041;-66
2022/04/27 00:56:20;;;;;;;1.83;1.30;;;;;;;20.25;35.83;98820.06;5030529;28;20037;-66
2022/04/27 00:58:47;;;;;;;2.55;1.23;;;;;;;20.19;36.08;98822.72;5031272;28;20104;-68
2022/04/27 01:01:14;;;;;;;1.67;1.25;;;;;;;20.15;36.10;98826.84;5030509;28;20034;-67
2022/04/27 01:03:40;;;;;;;3.45;1.92;;;;;;;20.13;36.27;98822.50;5030964;28;20061;-67
2022/04/27 01:06:06;;;;;;;2.20;1.20;;;;;;;20.09;36.51;98825.78;5031220;28;20029;-66
2022/04/27 01:08:32;;;;;;;3.65;1.40;;;;;;;20.12;36.37;98836.94;5028692;28;20566;-67
2022/04/27 01:10:59;;;;;;;4.47;1.60;;;;;;;20.16;36.63;98831.19;5030926;28;20059;-67
2022/04/27 01:13:27;;;;;;;3.33;1.10;;;;;;;20.19;36.51;98831.59;5030919;28;20492;-67
2022/04/27 01:15:53;;;;;;;5.38;1.60;;;;;;;20.21;36.27;98832.22;5030412;28;20037;-66
2022/04/27 01:18:18;;;;;;;2.03;1.50;;;;;;;20.13;36.63;98840.47;5031056;28;20032;-67
2022/04/27 01:20:44;;;;;;;2.05;1.30;;;;;;;20.09;36.88;98840.03;5027179;28;20043;-67
2022/04/27 01:23:14;;;;;;;2.20;1.33;;;;;;;20.07;36.59;98830.53;5030662;28;20037;-67
2022/04/27 01:25:48;;;;;;;1.92;1.33;;;;;;;20.01;36.70;98836.69;5017920;28;20197;-67
2022/04/27 01:28:15;;;;;;;2.35;1.35;;;;;;;19.93;36.83;98841.22;5012325;28;20061;-67
2022/04/27 01:30:41;;;;;;;3.60;1.73;;;;;;;19.83;37.02;98838.84;5020198;28;20495;-67
2022/04/27 01:33:10;;;;;;;2.65;1.30;;;;;;;19.78;36.97;98843.97;5030894;28;20041;-66
2022/04/27 01:35:36;;;;;;;2.45;1.38;;;;;;;19.70;37.01;98844.16;5015939;28;20049;-67
2022/04/27 01:38:03;;;;;;;7.32;1.50;;;;;;;19.67;37.28;98844.53;5030434;28;20037;-67
2022/04/27 01:40:31;;;;;;;1.83;1.27;;;;;;;19.73;37.11;98834.84;5029976;28;20030;-67
2022/04/27 01:42:56;;;;;;;1.52;1.00;;;;;;;19.78;37.31;98841.28;5030719;28;20381;-66
2022/04/27 01:45:22;;;;;;;2.60;1.45;;;;;;;19.81;37.50;98838.22;5030480;28;20040;-67
2022/04/27 01:47:48;;;;;;;1.42;0.90;;;;;;;19.76;37.63;98835.31;5030505;28;20438;-67
2022/04/27 01:50:13;;;;;;;3.70;1.40;;;;;;;19.73;38.07;98841.06;5030468;28;20026;-67
2022/04/27 01:55:23;;;;;;;1.92;1.40;;;;;;;19.72;37.92;98842.09;5030919;28;20461;-67
2022/04/27 01:57:48;;;;;;;3.38;1.52;;;;;;;19.64;38.10;98844.91;5012221;28;20038;-68
2022/04/27 02:00:15;;;;;;;3.53;1.00;;;;;;;19.62;38.07;98844.31;5015228;28;20025;-68
2022/04/27 02:02:41;;;;;;;1.60;1.10;;;;;;;19.63;37.92;98837.91;5030452;28;20045;-67
2022/04/27 02:05:07;;;;;;;5.57;1.42;;;;;;;19.66;37.79;98840.19;5030434;28;20114;-66
2022/04/27 02:07:32;;;;;;;3.35;1.63;;;;;;;19.68;37.62;98846.19;5013011;28;20110;-67
2022/04/27 02:09:58;;;;;;;4.63;1.25;;;;;;;19.70;37.91;98841.47;5029886;28;20493;-66
2022/04/27 02:12:23;;;;;;;2.28;1.23;;;;;;;19.78;37.81;98843.97;5030523;28;20116;-67
2022/04/27 02:14:49;;;;;;;3.10;1.02;;;;;;;19.87;37.72;98842.00;5030071;28;20038;-67
2022/04/27 02:17:14;;;;;;;2.00;1.40;;;;;;;19.92;37.46;98849.47;5030258;28;20032;-68
2022/04/27 02:19:40;;;;;;;2.08;1.33;;;;;;;19.95;37.72;98849.06;5031251;28;20437;-67
2022/04/27 02:22:05;;;;;;;2.00;1.20;;;;;;;20.01;37.64;98853.63;5033778;28;20033;-67
2022/04/27 02:24:31;;;;;;;1.50;1.15;;;;;;;20.06;37.55;98856.56;5033296;28;20030;-67
2022/04/27 02:26:57;;;;;;;2.85;1.60;;;;;;;20.18;37.26;98856.00;5032855;28;20033;-65
2022/04/27 02:29:22;;;;;;;1.83;1.20;;;;;;;20.20;37.11;98862.00;5033698;28;20488;-67
2022/04/27 02:31:49;;;;;;;4.70;1.80;;;;;;;20.19;36.92;98860.34;5033300;28;20501;-67
2022/04/27 02:34:14;;;;;;;2.17;1.17;;;;;;;20.09;37.17;98866.88;5033241;28;20387;-65
2022/04/27 02:36:40;;;;;;;2.35;1.42;;;;;;;19.98;37.42;98872.81;5033849;28;20116;-67
2022/04/27 02:39:05;;;;;;;1.90;1.35;;;;;;;19.91;37.47;98872.78;5033169;28;20780;-67
2022/04/27 02:41:31;;;;;;;2.72;1.23;;;;;;;19.90;37.43;98868.44;5033301;28;20485;-66
2022/04/27 02:43:57;;;;;;;3.60;1.50;;;;;;;19.93;37.38;98872.56;5033089;28;20048;-66
2022/04/27 02:46:22;;;;;;;3.35;1.40;;;;;;;19.99;37.36;98879.03;5022834;28;20037;-67
2022/04/27 02:51:53;;;;;;;1.77;1.23;;;;;;;19.82;37.64;98887.38;5030108;28;20040;-66
2022/04/27 02:54:21;;;;;;;2.20;1.30;;;;;;;19.71;37.81;98899.47;5033257;28;20037;-67
2022/04/27 02:56:48;;;;;;;1.90;1.20;;;;;;;19.76;37.78;98885.47;5033057;28;20037;-67
2022/04/27 02:59:14;;;;;;;2.92;1.50;;;;;;;19.78;37.76;98881.56;5032889;28;20082;-67
2022/04/27 03:01:39;;;;;;;3.03;1.20;;;;;;;19.75;37.90;98881.97;5032749;28;20041;-67
2022/04/27 03:04:05;;;;;;;3.17;1.42;;;;;;;19.68;37.81;98883.75;5032629;28;20071;-67
2022/04/27 03:06:31;;;;;;;2.88;1.25;;;;;;;19.68;37.83;98875.72;5032739;28;20048;-66
2022/04/27 03:08:56;;;;;;;3.00;1.63;;;;;;;19.67;38.10;98871.38;5032483;28;20492;-66
2022/04/27 03:11:22;;;;;;;1.98;1.45;;;;;;;19.58;38.15;98878.75;5032631;28;20087;-66
2022/04/27 03:13:47;;;;;;;2.72;1.60;;;;;;;19.51;38.30;98878.69;5033058;28;20103;-66
2022/04/27 03:16:13;;;;;;;4.35;1.50;;;;;;;19.42;38.34;98877.19;5032839;28;20040;-67
2022/04/27 03:18:38;;;;;;;1.83;1.25;;;;;;;19.35;38.45;98877.13;5032600;28;20044;-66
2022/04/27 03:21:04;;;;;;;2.13;1.48;;;;;;;19.34;38.71;98883.53;5032720;28;20034;-66
2022/04/27 03:23:30;;;;;;;2.13;1.27;;;;;;;19.36;38.68;98884.16;5032348;28;20033;-67
2022/04/27 03:25:55;;;;;;;2.47;1.20;;;;;;;19.38;38.27;98886.66;5032204;28;20401;-67
2022/04/27 03:28:21;;;;;;;2.25;1.42;;;;;;;19.41;38.60;98880.91;5032542;28;20104;-67
2022/04/27 03:30:49;;;;;;;3.10;1.40;;;;;;;19.43;38.42;98892.28;5030978;28;20033;-65
2022/04/27 03:33:15;;;;;;;2.38;1.35;;;;;;;19.49;38.40;98896.84;5032642;28;20029;-67
2022/04/27 03:35:41;;;;;;;3.67;1.42;;;;;;;19.55;38.50;98889.88;5031836;28;20034;-67
2022/04/27 03:38:08;;;;;;;2.45;1.42;;;;;;;19.54;38.31;98898.13;5032471;28;20052;-66
2022/04/27 03:40:34;;;;;;;6.28;1.65;;;;;;;19.51;38.48;98899.34;5031844;28;20025;-66
2022/04/27 03:43:00;;;;;;;2.05;1.25;;;;;;;19.58;38.54;98896.72;5032022;28;20025;-67
2022/04/27 03:45:25;;;;;;;3.40;1.58;;;;;;;19.60;38.42;98902.72;5032287;28;20030;-66
2022/04/27 03:47:51;;;;;;;1.80;1.25;;;;;;;19.59;38.58;98904.56;5032162;28;20697;-66
2022/04/27 03:50:17;;;;;;;3.25;1.70;;;;;;;19.66;38.41;98909.97;5031524;28;20033;-65
2022/04/27 03:52:43;;;;;;;2.30;1.55;;;;;;;19.63;38.35;98905.81;5031715;28;20488;-66
2022/04/27 03:55:10;;;;;;;2.63;1.42;;;;;;;19.56;38.40;98918.34;5031939;28;20040;-66
2022/04/27 03:57:37;;;;;;;3.63;1.73;;;;;;;19.50;38.37;98911.91;5029783;28;20029;-67
2022/04/27 04:00:05;;;;;;;4.35;1.38;;;;;;;19.45;38.48;98913.53;5020864;28;20033;-66
2022/04/27 04:02:30;;;;;;;3.85;1.75;;;;;;;19.39;38.49;98912.44;5031886;28;20103;-67
2022/04/27 04:04:56;;;;;;;2.47;1.50;;;;;;;19.43;38.55;98911.03;5017650;28;20042;-67
2022/04/27 04:07:21;;;;;;;3.03;1.40;;;;;;;19.63;38.49;98911.19;5028096;28;20095;-66
2022/04/27 04:09:47;;;;;;;2.65;1.90;;;;;;;19.81;38.13;98916.06;5031084;28;20045;-66
2022/04/27 04:12:13;;;;;;;2.35;1.40;;;;;;;19.94;37.89;98911.81;5032018;28;20033;-65
2022/04/27 04:14:39;;;;;;;3.05;1.77;;;;;;;20.04;37.58;98911.47;5031636;28;20048;-66
2022/04/27 04:17:05;;;;;;;2.38;1.70;;;;;;;20.08;37.39;98910.06;5031991;28;20414;-66
2022/04/27 04:19:32;;;;;;;3.08;1.73;;;;;;;20.07;37.31;98909.22;5031586;28;20040;-68
2022/04/27 04:21:59;;;;;;;2.70;1.60;;;;;;;20.17;37.18;98911.53;5030744;28;20087;-66
2022/04/27 04:24:25;;;;;;;2.95;1.70;;;;;;;20.28;37.00;98900.25;5030798;28;20096;-67
2022/04/27 04:29:35;;;;;;;4.43;1.90;;;;;;;20.48;36.55;98906.75;5031271;28;20045;-67
2022/04/27 04:32:00;;;;;;;5.72;1.50;;;;;;;20.62;36.47;98919.19;5031119;28;20041;-67
2022/04/27 04:34:26;;;;;;;4.10;1.40;;;;;;;20.77;36.19;98912.84;5031523;28;20036;-67
2022/04/27 04:36:51;;;;;;;2.35;1.80;;;;;;;20.98;35.70;98919.94;5030808;28;20044;-68
2022/04/27 04:39:17;;;;;;;2.75;1.50;;;;;;;21.20;35.43;98915.22;5030956;28;20463;-68
2022/04/27 04:41:42;;;;;;;2.47;1.50;;;;;;;21.33;35.03;98925.97;5030629;28;20037;-66
2022/04/27 04:44:08;;;;;;;2.40;1.45;;;;;;;21.38;34.75;98911.09;5030538;28;20389;-67
2022/04/27 04:46:33;;;;;;;4.30;1.63;;;;;;;21.45;34.53;98911.91;5030911;28;20056;-67
2022/04/27 04:48:59;;;;;;;2.83;1.40;;;;;;;21.55;34.50;98914.16;5031170;28;20033;-67
2022/04/27 04:51:24;;;;;;;2.50;1.20;;;;;;;21.66;34.18;98913.56;5030797;28;20029;-68
2022/04/27 04:53:50;;;;;;;4.00;1.38;;;;;;;21.84;33.80;98906.72;5030966;28;20488;-68
2022/04/27 04:56:15;;;;;;;2.05;1.45;;;;;;;22.02;33.49;98904.19;5030897;28;20029;-68
2022/04/27 04:58:40;;;;;;;2.20;1.23;;;;;;;22.15;33.15;98900.63;5031038;28;20033;-68
2022/04/27 05:01:06;;;;;;;1.80;0.93;;;;;;;22.19;32.81;98907.25;5030264;28;20029;-68
2022/04/27 05:03:36;;;;;;;3.17;1.20;;;;;;;22.17;32.91;98909.31;5030890;28;20103;-66
2022/04/27 05:06:02;;;;;;;2.17;0.95;;;;;;;22.23;32.79;98908.47;5031789;28;20056;-68
2022/04/27 05:08:27;;;;;;;4.75;1.38;;;;;;;22.30;32.65;98916.53;5032645;28;20540;-68
2022/04/27 05:10:53;;;;;;;3.03;1.00;;;;;;;22.34;32.56;98916.94;5032120;28;20071;-68
2022/04/27 05:13:19;;;;;;;3.88;1.38;;;;;;;22.32;32.51;98922.56;5032433;28;20405;-67
2022/04/27 05:15:44;;;;;;;4.72;1.40;;;;;;;22.19;32.50;98920.72;5032328;28;20137;-67
2022/04/27 05:18:10;;;;;;;4.65;1.25;;;;;;;22.08;32.56;98930.28;5032753;28;20120;-67
2022/04/27 05:20:37;;;;;;;1.95;1.10;;;;;;;22.10;32.59;98930.09;5031886;28;20506;-68
2022/04/27 05:23:02;;;;;;;5.95;1.50;;;;;;;22.10;32.42;98936.28;5032498;28;20033;-67
2022/04/27 05:25:28;;;;;;;4.40;1.55;;;;;;;22.12;32.32;98933.41;5032297;28;20059;-67
2022/04/27 05:27:53;;;;;;;8.60;1.33;;;;;;;22.06;32.31;98936.91;5032762;28;20378;-67
2022/04/27 05:33:03;;;;;;;8.57;1.58;;;;;;;22.08;32.23;98937.53;5032044;28;20044;-67
2022/04/27 05:35:28;;;;;;;2.05;1.40;;;;;;;22.02;32.42;98928.44;5032139;28;20033;-67
2022/04/27 05:37:54;;;;;;;3.85;1.17;;;;;;;22.10;32.28;98936.28;5032410;28;20090;-67
2022/04/27 05:40:20;;;;;;;3.35;1.50;;;;;;;22.06;32.24;98931.53;5031885;28;20035;-67
2022/04/27 05:42:47;;;;;;;3.80;1.70;;;;;;;21.93;32.18;98938.59;5031978;28;20417;-68
2022/04/27 05:45:14;;;;;;;5.45;1.30;;;;;;;21.84;32.38;98934.47;5031398;28;20071;-67
2022/04/27 05:47:40;;;;;;;1.75;1.25;;;;;;;21.79;32.22;98936.97;5031647;28;20073;-67
2022/04/27 05:50:05;;;;;;;4.55;1.25;;;;;;;21.72;32.45;98931.59;5031311;28;20064;-67
2022/04/27 05:52:45;;;;;;;2.92;1.35;;;;;;;21.67;32.42;98941.34;5031817;28;20037;-67
2022/04/27 05:55:11;;;;;;;2.72;1.20;;;;;;;21.65;32.46;98938.84;5034868;28;20037;-67
2022/04/27 05:57:36;;;;;;;3.38;1.08;;;;;;;21.59;32.44;98940.47;5036252;28;20047;-68
2022/04/27 06:00:02;;;;;;;2.05;1.10;;;;;;;21.67;32.71;98941.34;5036111;28;20480;-67
2022/04/27 06:02:28;;;;;;;2.67;1.38;;;;;;;21.84;32.28;98950.63;5036268;28;20514;-68
2022/04/27 06:04:54;;;;;;;4.10;1.02;;;;;;;21.98;32.27;98954.13;5035579;28;20034;-68
2022/04/27 06:07:19;;;;;;;2.10;1.02;;;;;;;22.10;32.21;98940.84;5036089;28;20059;-67
2022/04/27 06:09:45;;;;;;;5.72;1.60;;;;;;;22.24;31.86;98947.88;5034820;28;20049;-68
2022/04/27 06:12:10;;;;;;;2.53;1.40;;;;;;;22.27;31.57;98951.19;5035571;28;21164;-67
2022/04/27 06:14:36;;;;;;;8.82;1.20;;;;;;;22.33;31.75;98953.00;5035573;28;20064;-68
2022/04/27 06:17:02;;;;;;;4.20;1.65;;;;;;;22.44;31.70;98955.06;5035483;28;20029;-68
2022/04/27 06:19:27;;;;;;;4.07;1.33;;;;;;;22.51;31.80;98955.88;5035598;28;20087;-68
2022/04/27 06:21:53;;;;;;;3.03;0.70;;;;;;;22.53;31.72;98956.50;5035502;28;20520;-67
2022/04/27 06:24:18;;;;;;;3.03;1.70;;;;;;;22.50;31.67;98962.31;5035372;28;20037;-68
2022/04/27 06:26:44;;;;;;;6.85;1.70;;;;;;;22.44;31.54;98960.47;5035390;28;20063;-67
2022/04/27 06:29:10;;;;;;;4.30;1.48;;;;;;;22.44;31.88;98967.72;5035533;28;20191;-67
2022/04/27 06:31:35;;;;;;;6.07;1.58;;;;;;;22.36;31.46;98977.66;5035651;28;20420;-68
2022/04/27 06:34:01;;;;;;;4.95;1.25;;;;;;;22.24;31.68;98974.81;5035578;28;20037;-68
2022/04/27 06:36:26;;;;;;;4.70;1.60;;;;;;;22.16;31.58;98980.41;5034706;28;20040;-68
2022/04/27 06:38:52;;;;;;;3.30;1.30;;;;;;;22.13;31.55;98967.34;5035095;28;20447;-68
2022/04/27 06:41:17;;;;;;;3.60;1.55;;;;;;;22.13;31.33;98982.69;5035079;28;20041;-68
2022/04/27 06:43:43;;;;;;;3.10;1.52;;;;;;;22.01;31.79;98982.50;5035338;28;20052;-69
2022/04/27 06:46:08;;;;;;;6.18;1.50;;;;;;;22.03;31.72;98975.88;5034552;28;20064;-68
2022/04/27 06:48:34;;;;;;;3.63;1.85;;;;;;;21.96;31.44;98977.75;5034598;28;20573;-68
2022/04/27 06:50:59;;;;;;;5.65;1.77;;;;;;;21.75;31.68;98968.88;5034676;28;20029;-68
2022/04/27 06:53:25;;;;;;;3.47;1.40;;;;;;;21.67;31.70;98979.84;5034919;28;20128;-69
2022/04/27 06:55:51;;;;;;;4.60;1.65;;;;;;;21.55;31.86;98979.59;5017311;28;20033;-69
2022/04/27 06:58:17;;;;;;;4.93;1.85;;;;;;;21.48;31.84;98970.69;5034851;28;20507;-68
2022/04/27 07:00:42;;;;;;;4.95;1.65;;;;;;;21.47;31.75;98979.81;5034807;28;20055;-69
2022/04/27 07:03:09;;;;;;;5.13;1.70;;;;;;;21.41;31.61;98980.63;5035016;28;20061;-69
2022/04/27 07:05:35;;;;;;;1.90;1.25;;;;;;;21.29;31.70;98983.09;5033871;28;20403;-70
2022/04/27 07:08:01;;;;;;;2.20;1.70;;;;;;;21.22;31.77;98976.88;5034530;28;20081;-69
2022/04/27 07:10:26;;;;;;;2.22;1.27;;;;;;;21.20;32.12;98974.38;5033319;28;20528;-69
2022/04/27 07:12:52;;;;;;;3.47;1.10;;;;;;;21.24;31.91;98985.56;5034596;28;20045;-68
2022/04/27 07:15:18;;;;;;;3.35;1.67;;;;;;;21.22;31.86;98991.16;5034816;28;20040;-69
2022/04/27 07:17:43;;;;;;;1.83;1.13;;;;;;;21.19;31.65;98986.19;5034477;28;20172;-69
2022/04/27 07:20:10;;;;;;;5.80;1.40;;;;;;;21.12;31.99;98982.63;5034949;28;20052;-68
2022/04/27 07:22:36;;;;;;;3.20;1.27;;;;;;;21.07;31.80;98985.13;5033886;28;20044;-68
2022/04/27 07:25:01;;;;;;;3.67;1.40;;;;;;;20.98;31.68;98987.97;5034185;28;20037;-69
2022/04/27 07:27:27;;;;;;;2.28;1.10;;;;;;;20.95;31.66;98987.56;5034675;28;20037;-68
2022/04/27 07:29:53;;;;;;;4.88;1.52;;;;;;;20.96;31.83;98994.59;5034350;28;20408;-69
2022/04/27 07:32:19;;;;;;;1.98;1.38;;;;;;;21.06;31.70;99002.28;5033714;28;20033;-69
2022/04/27 07:34:44;;;;;;;5.03;1.23;;;;;;;21.04;31.93;98997.09;5034001;28;20052;-68
2022/04/27 07:37:10;;;;;;;2.88;1.70;;;;;;;21.04;31.63;99007.84;5034024;28;20115;-69
2022/04/27 07:39:36;;;;;;;4.45;1.42;;;;;;;20.97;31.63;98996.25;5033736;28;20120;-69
2022/04/27 07:42:02;;;;;;;3.33;1.65;;;;;;;20.85;31.75;99004.91;5034085;28;20413;-68
2022/04/27 07:44:27;;;;;;;3.80;1.30;;;;;;;20.83;31.89;99003.44;5034216;28;20099;-69
2022/04/27 07:46:53;;;;;;;4.60;1.40;;;;;;;20.86;32.01;99006.59;5034272;28;20045;-69
2022/04/27 07:49:20;;;;;;;2.85;1.02;;;;;;;20.96;32.05;99011.56;5033963;28;20033;-67
2022/04/27 07:51:49;;;;;;;3.42;1.60;;;;;;;21.13;31.42;99000.44;5033752;28;20030;-67
2022/04/27 07:54:15;;;;;;;2.15;1.20;;;;;;;21.17;31.50;98996.31;5033917;28;20037;-68
2022/04/27 07:56:41;;;;;;;2.30;2.10;;;;;;;21.29;31.43;98992.00;5033718;28;20515;-69
2022/04/27 07:59:06;;;;;;;1.65;1.05;;;;;;;21.39;31.05;98988.09;5033912;28;20099;-68
2022/04/27 08:01:32;;;;;;;3.60;1.60;;;;;;;21.39;31.08;98990.78;5032286;28;20025;-69
2022/04/27 08:03:58;;;;;;;3.47;1.50;;;;;;;21.33;30.92;98985.16;5033495;28;20116;-66
2022/04/27 08:06:23;;;;;;;6.75;1.50;;;;;;;21.29;31.06;98996.56;5033478;28;20052;-68
2022/04/27 08:08:49;;;;;;;4.38;1.40;;;;;;;21.21;30.92;99005.66;5033452;28;20084;-68
2022/04/27 08:11:15;;;;;;;3.47;1.42;;;;;;;21.17;30.84;98989.09;5033341;28;20033;-67
2022/04/27 08:13:44;;;;;;;2.30;1.48;;;;;;;21.19;30.98;98995.06;5033321;28;20041;-67
2022/04/27 08:16:11;;;;;;;4.50;1.30;;;;;;;21.16;30.83;98998.19;5032505;28;20076;-67
2022/04/27 08:18:38;;;;;;;2.20;1.13;;;;;;;21.07;30.86;98991.31;5033600;28;20067;-67
2022/04/27 08:21:16;;;;;;;1.50;1.17;;;;;;;20.99;30.78;99005.78;5033080;28;20033;-68
2022/04/27 08:23:46;;;;;;;1.70;1.00;;;;;;;20.86;31.07;99003.88;5033968;28;20436;-67
2022/04/27 08:26:13;;;;;;;3.22;0.98;;;;;;;20.79;31.30;99002.22;5032428;28;20064;-68
2022/04/27 08:28:39;;;;;;;1.90;1.20;;;;;;;20.81;31.32;98992.06;5032689;28;20113;-67
2022/04/27 08:31:06;;;;;;;1.42;1.10;;;;;;;20.92;31.53;98988.81;5032892;28;20493;-68
2022/04/27 08:33:32;;;;;;;8.50;0.90;;;;;;;21.07;31.33;98996.69;5033276;28;20496;-67
2022/04/27 08:35:59;;;;;;;2.83;0.75;;;;;;;21.22;31.16;98993.00;5032377;28;20033;-67
2022/04/27 08:38:24;;;;;;;2.90;1.30;;;;;;;21.37;30.78;99000.91;5033041;28;20508;-67
2022/04/27 08:40:50;;;;;;;3.03;1.40;;;;;;;21.34;30.61;98991.38;5032869;28;20034;-67
2022/04/27 08:43:16;;;;;;;1.85;1.15;;;;;;;21.31;30.53;98995.31;5033207;28;20029;-68
2022/04/27 08:45:44;;;;;;;2.60;1.20;;;;;;;21.32;30.67;98983.50;5032248;28;20478;-67
2022/04/27 08:48:14;;;;;;;2.30;1.20;;;;;;;21.34;30.45;98996.75;5032790;28;20068;-67
2022/04/27 08:50:40;;;;;;;6.15;1.13;;;;;;;21.31;30.43;98998.00;5032906;28;20030;-68
2022/04/27 08:53:07;;;;;;;2.05;1.10;;;;;;;21.27;30.40;98993.22;5033319;28;20045;-67
2022/04/27 08:55:35;;;;;;;2.55;1.10;;;;;;;21.26;30.73;98997.78;5032290;28;20029;-67
2022/04/27 08:58:13;;;;;;;2.67;1.00;;;;;;;21.27;30.50;98998.63;5032564;28;20041;-67
2022/04/27 09:00:39;;;;;;;5.18;1.10;;;;;;;21.20;30.47;98995.91;5032764;28;20039;-67
2022/04/27 09:03:32;;;;;;;2.72;1.23;;;;;;;21.21;30.49;99011.03;5027450;28;20404;-68
2022/04/27 09:06:03;;;;;;;2.00;1.20;;;;;;;21.17;30.93;99012.44;5021025;28;20041;-69
2022/04/27 09:08:43;;;;;;;;;;;;;;;21.04;31.00;99019.47;5032611;28;20041;-68
2022/04/27 09:11:26;;;;;;;2.08;1.30;;;;;;;21.02;31.31;99021.53;5031980;28;19921;-67
2022/04/27 09:13:58;;;;;;;2.85;1.58;;;;;;;21.06;31.13;99011.19;5032049;28;20033;-67
2022/04/27 09:20:46;;;;;;;8.25;1.65;;;;;;;21.15;31.18;99026.13;5032036;28;20037;-67
2022/04/27 09:22:06;;;;;;;2.17;1.13;;;;;;;21.04;31.65;99021.31;5026448;28;20041;-68
2022/04/27 09:24:53;;;;;;;6.43;1.63;;;;;;;20.96;31.66;99030.38;5032584;28;20424;-67
2022/04/27 09:27:21;;;;;;;5.28;1.90;;;;;;;20.95;31.95;99034.13;5032386;28;20033;-69
2022/04/27 09:30:03;;;;;;;2.40;1.50;;;;;;;20.98;31.57;99032.88;5034888;28;20038;-69
2022/04/27 09:32:30;;;;;;;2.47;1.45;;;;;;;20.95;32.12;99026.06;5036454;28;20065;-67
2022/04/27 09:34:57;;;;;;;2.78;1.42;;;;;;;21.10;32.03;99033.97;5018694;28;20032;-65
2022/04/27 09:37:24;;;;;;;7.35;1.65;;;;;;;21.18;32.06;99031.06;5036725;28;20155;-65
2022/04/27 09:40:07;;;;;;;4.28;1.77;;;;;;;21.30;31.97;99036.69;5036080;28;20057;-65
2022/04/27 09:42:35;;;;;;;3.25;1.63;;;;;;;21.32;31.64;99028.44;5035808;28;20057;-66
2022/04/27 09:45:26;;;;;;;3.83;1.48;;;;;;;21.38;31.54;99037.56;5035801;28;20049;-66
2022/04/27 09:48:11;;;;;;;2.90;1.50;;;;;;;21.30;31.52;99036.69;5035649;28;20546;-65
2022/04/27 09:50:51;;;;;;;5.97;1.83;;;;;;;21.22;31.60;99044.97;5035700;28;20112;-67
2022/04/27 09:53:18;;;;;;;3.63;1.50;;;;;;;21.18;31.99;99031.06;5036220;28;20022;-64
2022/04/27 09:55:55;;;;;;;6.63;1.52;;;;;;;21.34;31.81;99040.66;5035651;28;20037;-66
2022/04/27 09:58:25;;;;;;;2.42;1.48;;;;;;;21.44;31.84;99044.81;5025400;28;20401;-65
2022/04/27 10:00:56;;;;;;;3.33;1.50;;;;;;;21.52;31.62;99050.00;5034707;28;20025;-66
2022/04/27 10:03:25;;;;;;;4.32;1.55;;;;;;;21.52;31.68;99041.09;5035795;28;20040;-67
2022/04/27 10:05:51;;;;;;;5.78;1.40;;;;;;;21.56;31.71;99043.16;5036042;28;20049;-66
2022/04/27 10:08:19;;;;;;;4.30;1.73;;;;;;;21.68;31.62;99050.69;5035791;28;20057;-67
2022/04/27 10:10:46;;;;;;;4.80;1.85;;;;;;;21.71;31.66;99055.63;5034416;28;20029;-67
2022/04/27 10:13:13;;;;;;;3.47;1.50;;;;;;;21.67;31.62;99054.41;5032160;28;20045;-65
2022/04/27 10:15:42;;;;;;;3.40;1.75;;;;;;;21.60;31.58;99055.22;5034874;28;20060;-65
2022/04/27 10:18:18;;;;;;;12.85;3.60;;;;;;;21.48;31.48;99056.81;5035103;28;20421;-67
2022/04/27 10:20:44;;;;;;;2.33;1.10;;;;;;;21.43;31.63;99062.81;5035643;28;20061;-67
2022/04/27 10:23:20;;;;;;;3.42;1.30;;;;;;;21.48;31.40;99064.91;5035698;28;20264;-68
2022/04/27 10:26:11;;;;;;;3.20;1.35;;;;;;;21.45;31.51;99065.31;5033999;28;20033;-68
2022/04/27 10:28:41;;;;;;;2.53;1.30;;;;;;;21.41;31.32;99066.72;5034595;28;20037;-66
2022/04/27 10:31:08;;;;;;;1.58;1.17;;;;;;;21.39;31.61;99069.63;5034592;28;20087;-65
2022/04/27 10:33:48;;;;;;;2.40;1.13;;;;;;;21.43;31.61;99072.75;5035331;28;20083;-67
2022/04/27 10:36:37;;;;;;;2.78;1.10;;;;;;;21.58;31.59;99076.09;5034621;28;20033;-66
2022/04/27 10:39:12;;;;;;;6.80;1.17;;;;;;;21.70;31.37;99068.28;5034650;28;20041;-67
2022/04/27 10:41:42;;;;;;;1.73;1.08;;;;;;;21.75;31.09;99083.81;5018710;28;20046;-65
2022/04/27 10:44:08;;;;;;;1.77;1.20;;;;;;;21.74;30.90;99074.94;5028589;28;20033;-67
2022/04/27 10:46:38;;;;;;;2.25;1.30;;;;;;;21.63;30.91;99070.97;5034709;28;20041;-67
2022/04/27 10:49:36;;;;;;;2.40;1.23;;;;;;;21.53;30.90;99075.91;5035123;28;20044;-64
2022/04/27 10:52:06;;;;;;;1.63;0.95;;;;;;;21.51;31.18;99069.88;4986722;28;20519;-65
2022/04/27 10:54:33;;;;;;;1.40;0.75;;;;;;;21.56;31.35;99070.06;5035328;28;20095;-66
2022/04/27 10:57:17;;;;;;;8.75;1.00;;;;;;;21.67;31.33;99067.88;5019343;28;20456;-68
2022/04/27 10:59:49;;;;;;;4.00;1.00;;;;;;;21.72;31.04;99057.28;5033908;28;20034;-67
2022/04/27 11:02:44;;;;;;;3.85;1.00;;;;;;;21.87;30.89;99066.00;5034721;28;20041;-66
2022/04/27 11:05:10;;;;;;;1.83;1.00;;;;;;;22.03;31.16;99077.41;4999181;28;20037;-67
2022/04/27 11:07:43;;;;;;;2.13;0.95;;;;;;;22.13;30.80;99075.13;5034570;28;20055;-69
2022/04/27 11:10:14;;;;;;;10.88;2.70;;;;;;;22.10;30.40;99075.56;5033680;28;20049;-68
2022/04/27 11:12:42;;;;;;;4.10;1.10;;;;;;;21.96;30.16;99085.50;5034484;28;20625;-68
2022/04/27 11:15:12;;;;;;;2.47;0.98;;;;;;;21.85;30.33;99089.63;5034269;28;20033;-67
2022/04/27 11:17:40;;;;;;;3.37;1.30;;;;;;;21.80;30.48;99100.19;5034622;28;20120;-67
2022/04/27 11:20:21;;;;;;;6.10;1.38;;;;;;;21.74;30.74;99107.25;5033868;28;20485;-67
2022/04/27 11:22:47;;;;;;;;;;;;;;;21.55;31.10;99116.06;5019697;28;20029;-67
2022/04/27 11:25:13;;;;;;;2.35;0.80;;;;;;;21.56;31.19;99136.56;5033652;28;20004;-67
2022/04/27 11:27:38;;;;;;;1.95;1.08;;;;;;;21.47;31.55;99141.28;5034100;28;20037;-68
2022/04/27 11:30:07;;;;;;;3.65;0.70;;;;;;;21.42;31.66;99154.50;5034176;28;20492;-68
2022/04/27 11:32:34;;;;;;;3.90;1.10;;;;;;;21.43;31.61;99150.78;5035113;28;20036;-68
2022/04/27 11:35:00;;;;;;;3.35;0.88;;;;;;;21.45;31.72;99154.13;5033646;28;20582;-67
2022/04/27 11:37:25;;;;;;;1.35;0.93;;;;;;;21.41;31.86;99169.00;5034405;28;20037;-68
2022/04/27 11:39:51;;;;;;;4.10;1.25;;;;;;;21.27;32.17;99168.13;5034147;28;20116;-69
2022/04/27 11:42:17;;;;;;;1.83;1.02;;;;;;;21.21;32.75;99160.84;5034276;28;20682;-69
2022/04/27 11:44:50;;;;;;;3.30;1.05;;;;;;;21.11;32.31;99163.91;5033584;28;20059;-69
2022/04/27 11:47:30;;;;;;;2.75;1.20;;;;;;;20.91;32.39;99169.16;5034172;28;20056;-69
2022/04/27 11:50:04;;;;;;;3.08;0.93;;;;;;;20.77;32.74;99168.25;5033824;28;20456;-67